createdAt,value
2018-06-27T08:57:25.828Z,3.10
2018-06-27T08:59:54.811Z,2.73
2018-06-27T09:02:22.809Z,2.60
2018-06-27T09:04:51.261Z,4.40
2018-06-27T09:07:19.265Z,3.40
2018-06-27T09:09:47.486Z,3.70
2018-06-27T09:12:15.560Z,3.10
2018-06-27T09:14:43.715Z,2.90
2018-06-27T09:17:11.791Z,3.00
2018-06-27T09:19:39.842Z,2.90
2018-06-27T09:22:07.925Z,2.70
2018-06-27T09:24:35.935Z,3.00
2018-06-27T09:27:04.029Z,2.90
2018-06-27T09:29:32.116Z,3.20
2018-06-27T09:32:00.482Z,2.60
2018-06-27T09:34:28.693Z,2.67
2018-06-27T09:36:56.694Z,2.63
2018-06-27T09:39:25.336Z,2.90
2018-06-27T09:41:53.363Z,3.03
2018-06-27T09:44:21.627Z,3.25
2018-06-27T09:49:16.852Z,2.90
2018-06-27T09:51:44.847Z,2.90
2018-06-27T09:54:12.874Z,3.00
2018-06-27T09:56:40.999Z,2.70
2018-06-27T09:59:09.047Z,2.50
2018-06-27T10:01:37.066Z,2.93
2018-06-27T10:04:05.084Z,2.97
2018-06-27T10:06:33.248Z,3.07
2018-06-27T10:09:01.351Z,3.10
2018-06-27T10:11:29.439Z,3.10
2018-06-27T10:13:57.468Z,2.90
2018-06-27T10:16:26.527Z,2.90
2018-06-27T10:18:54.575Z,3.00
2018-06-27T10:21:22.644Z,2.80
2018-06-27T10:23:50.704Z,2.83
2018-06-27T10:26:18.693Z,2.90
2018-06-27T10:28:46.845Z,2.73
2018-06-27T10:31:14.884Z,2.87
2018-06-27T10:33:43.312Z,3.20
2018-06-27T10:36:11.396Z,3.10
2018-06-27T10:38:39.471Z,2.60
2018-06-27T10:41:07.520Z,2.70
2018-06-27T10:43:35.584Z,3.03
2018-06-27T10:46:03.673Z,3.40
2018-06-27T10:48:31.755Z,3.50
2018-06-27T10:50:59.853Z,3.10
2018-06-27T10:53:27.975Z,3.10
2018-06-27T10:55:56.050Z,3.30
2018-06-27T10:58:24.689Z,3.33
2018-06-27T11:00:52.711Z,3.20
2018-06-27T11:03:20.748Z,3.03
2018-06-27T11:05:48.792Z,2.97
2018-06-27T11:08:16.811Z,3.00
2018-06-27T11:10:44.866Z,2.90
2018-06-27T11:13:13.100Z,2.93
2018-06-27T11:15:41.193Z,2.67
2018-06-27T11:18:10.211Z,2.93
2018-06-27T11:20:38.466Z,3.13
2018-06-27T11:23:06.464Z,2.90
2018-06-27T11:25:34.600Z,2.73
2018-06-27T11:28:02.782Z,3.57
2018-06-27T11:30:31.791Z,3.00
2018-06-27T11:32:59.873Z,3.07
2018-06-27T11:35:27.882Z,2.87
2018-06-27T11:37:55.965Z,2.70
2018-06-27T11:40:24.133Z,3.30
2018-06-27T11:42:52.187Z,3.00
2018-06-27T11:45:20.249Z,3.10
2018-06-27T11:47:48.300Z,3.00
2018-06-27T11:50:16.292Z,2.90
2018-06-27T11:52:44.491Z,3.00
2018-06-27T11:55:13.415Z,2.60
2018-06-27T11:57:43.021Z,2.70
2018-06-27T12:00:11.208Z,2.60
2018-06-27T12:02:39.601Z,2.80
2018-06-27T12:05:08.658Z,2.80
2018-06-27T12:07:37.805Z,2.73
2018-06-27T12:10:05.990Z,2.90
2018-06-27T12:12:34.057Z,2.70
2018-06-27T12:15:02.112Z,2.73
2018-06-27T12:17:30.278Z,2.93
2018-06-27T12:19:58.359Z,2.97
2018-06-27T12:22:26.451Z,2.80
2018-06-27T12:24:54.496Z,3.07
2018-06-27T12:27:22.674Z,2.90
2018-06-27T12:29:50.827Z,2.37
2018-06-27T12:32:18.951Z,2.87
2018-06-27T12:34:46.962Z,3.00
2018-06-27T12:37:15.165Z,2.50
2018-06-27T12:39:43.235Z,2.90
2018-06-27T12:42:11.347Z,2.50
2018-06-27T12:44:39.580Z,2.50
2018-06-27T12:47:07.608Z,2.70
2018-06-27T12:49:35.681Z,2.70
2018-06-27T12:52:03.750Z,2.80
2018-06-27T12:54:31.800Z,2.93
2018-06-27T12:56:59.963Z,3.03
2018-06-27T12:59:28.047Z,3.00
2018-06-27T13:45:37.926Z,2.80
2018-06-27T13:48:06.022Z,2.80
2018-06-27T13:50:34.119Z,2.50
2018-06-27T13:53:02.159Z,2.70
2018-06-27T13:55:30.199Z,2.77
2018-06-27T13:57:58.336Z,2.90
2018-06-27T14:00:26.365Z,3.00
2018-06-27T14:02:54.346Z,3.37
2018-06-27T14:05:22.422Z,2.70
2018-06-27T14:07:50.502Z,3.50
2018-06-27T14:10:18.575Z,2.87
2018-06-27T14:12:46.632Z,2.67
2018-06-27T14:15:14.732Z,2.70
2018-06-27T14:17:42.895Z,2.90
2018-06-27T14:20:11.053Z,3.00
2018-06-27T14:22:39.137Z,2.90
2018-06-27T14:25:07.308Z,4.37
2018-06-27T14:27:35.395Z,2.77
2018-06-27T14:30:03.679Z,3.70
2018-06-27T14:32:31.730Z,2.70
2018-06-27T14:34:59.761Z,2.70
2018-06-27T14:37:27.879Z,2.60
2018-06-27T14:39:55.955Z,2.70
2018-06-27T14:42:24.005Z,2.93
2018-06-27T14:44:52.259Z,2.73
2018-06-27T14:47:20.347Z,3.07
2018-06-27T14:49:48.499Z,2.80
2018-06-27T14:52:16.612Z,2.90
2018-06-27T14:54:48.913Z,2.97
2018-06-27T14:57:17.146Z,2.90
2018-06-27T14:59:45.692Z,3.10
2018-06-27T15:02:13.753Z,3.20
2018-06-27T15:04:41.956Z,3.20
2018-06-27T15:07:10.096Z,4.00
2018-06-27T15:09:38.283Z,3.77
2018-06-27T15:12:06.492Z,3.33
2018-06-27T15:14:34.566Z,3.10
2018-06-27T15:17:02.600Z,2.73
2018-06-27T15:19:30.900Z,3.13
2018-06-27T15:21:59.033Z,2.83
2018-06-27T15:24:27.132Z,3.43
2018-06-27T15:26:56.159Z,2.90
2018-06-27T15:29:24.280Z,3.00
2018-06-27T15:31:52.332Z,3.10
2018-06-27T15:34:20.375Z,3.47
2018-06-27T15:36:48.507Z,3.17
2018-06-27T15:39:16.665Z,2.93
2018-06-27T15:41:44.676Z,2.93
2018-06-27T15:44:12.728Z,2.73
2018-06-27T15:46:40.811Z,3.00
2018-06-27T15:49:09.892Z,3.10
2018-06-27T15:51:38.200Z,2.73
2018-06-27T15:54:06.273Z,2.97
2018-06-27T15:56:34.903Z,2.93
2018-06-27T15:59:03.019Z,3.00
2018-06-27T16:01:31.160Z,2.80
2018-06-27T16:03:59.220Z,2.83
2018-06-27T16:06:27.244Z,3.20
2018-06-27T16:08:55.355Z,3.10
2018-06-27T16:11:23.394Z,2.80
2018-06-27T16:13:51.533Z,2.73
2018-06-27T16:16:19.732Z,2.57
2018-06-27T16:18:47.810Z,2.57
2018-06-27T16:26:10.219Z,2.00
2018-06-27T16:28:38.387Z,2.60
2018-06-27T16:31:06.451Z,2.22
2018-06-27T16:33:34.590Z,2.30
2018-06-27T16:36:02.845Z,2.33
2018-06-27T16:38:30.973Z,2.55
2018-06-27T16:40:59.016Z,2.47
2018-06-27T16:43:27.090Z,2.42
2018-06-27T16:45:55.285Z,2.65
2018-06-27T16:48:23.337Z,2.30
2018-06-27T16:50:51.396Z,2.45
2018-06-27T16:53:19.428Z,2.20
2018-06-27T16:55:47.573Z,2.70
2018-06-27T17:00:24.652Z,2.58
2018-06-27T17:02:52.707Z,3.00
2018-06-27T17:05:20.767Z,3.03
2018-06-27T17:07:48.887Z,3.07
2018-06-27T17:10:16.920Z,2.70
2018-06-27T17:12:45.295Z,2.90
2018-06-27T17:15:13.407Z,3.10
2018-06-27T17:17:41.508Z,3.20
2018-06-27T17:20:09.486Z,2.70
2018-06-27T17:22:38.588Z,3.40
2018-06-27T17:25:06.923Z,3.20
2018-06-27T17:27:34.997Z,2.90
2018-06-27T17:30:03.168Z,3.40
2018-06-27T17:32:31.243Z,3.27
2018-06-27T17:34:59.301Z,2.93
2018-06-27T17:37:27.403Z,3.13
2018-06-27T17:39:55.436Z,3.57
2018-06-27T17:42:23.504Z,3.60
2018-06-27T17:44:51.589Z,3.70
2018-06-27T17:47:19.644Z,3.40
2018-06-27T17:49:47.705Z,3.00
2018-06-27T17:52:15.812Z,3.10
2018-06-27T17:54:44.297Z,3.23
2018-06-27T17:57:12.395Z,3.50
2018-06-27T17:59:40.456Z,4.70
2018-06-27T18:02:08.463Z,3.43
2018-06-27T18:04:36.567Z,2.87
2018-06-27T18:07:04.728Z,3.20
2018-06-27T18:09:32.788Z,2.80
2018-06-27T18:12:00.797Z,2.70
2018-06-27T18:14:28.851Z,3.00
2018-06-27T18:16:57.030Z,3.10
2018-06-27T18:19:25.122Z,2.87
2018-06-27T18:21:53.224Z,2.80
2018-06-27T18:24:21.254Z,3.00
2018-06-27T18:26:49.337Z,3.00
2018-06-27T18:29:17.446Z,2.93
2018-06-27T18:31:45.610Z,3.17
2018-06-27T18:34:13.821Z,3.20
2018-06-27T18:36:41.919Z,2.80
2018-06-27T18:39:10.977Z,3.20
2018-06-27T18:41:39.330Z,2.87
2018-06-27T18:44:07.544Z,3.40
2018-06-27T18:47:38.899Z,3.10
2018-06-27T18:50:06.977Z,3.10
2018-06-27T18:52:35.144Z,3.07
2018-06-27T18:55:03.305Z,3.13
2018-06-27T18:57:31.297Z,3.00
2018-06-27T18:59:59.456Z,3.40
2018-06-27T19:02:27.704Z,3.70
2018-06-27T19:04:56.014Z,3.63
2018-06-27T19:07:24.152Z,3.70
2018-06-27T19:09:53.152Z,3.50
2018-06-27T19:12:21.228Z,3.40
2018-06-27T19:14:49.340Z,3.60
2018-06-27T19:17:17.499Z,3.73
2018-06-27T19:19:45.584Z,3.67
2018-06-27T19:22:13.689Z,3.20
2018-06-27T19:24:41.823Z,3.80
2018-06-27T19:27:09.831Z,3.70
2018-06-27T19:29:37.872Z,3.90
2018-06-27T19:32:05.985Z,3.63
2018-06-27T19:34:34.142Z,3.70
2018-06-27T19:37:02.224Z,3.70
2018-06-27T19:39:37.461Z,4.50
2018-06-27T19:41:58.693Z,4.23
2018-06-27T19:44:26.825Z,4.60
2018-06-27T19:46:54.985Z,3.90
2018-06-27T19:49:23.057Z,4.00
2018-06-27T19:51:51.281Z,4.67
2018-06-27T19:54:19.442Z,4.17
2018-06-27T19:56:47.413Z,4.67
2018-06-27T19:59:15.917Z,5.17
2018-06-27T20:01:44.083Z,5.00
2018-06-27T20:04:12.285Z,4.60
2018-06-27T20:06:40.426Z,4.20
2018-06-27T20:09:09.288Z,4.87
2018-06-27T20:11:37.422Z,4.47
2018-06-27T20:14:05.547Z,4.37
2018-06-27T20:16:33.828Z,4.07
2018-06-27T20:19:01.863Z,4.53
2018-06-27T20:21:30.111Z,4.33
2018-06-27T20:23:58.116Z,4.17
2018-06-27T20:26:26.179Z,4.77
2018-06-27T20:28:54.332Z,4.47
2018-06-27T20:31:22.404Z,4.17
2018-06-27T20:33:50.493Z,4.43
2018-06-27T20:36:18.614Z,4.37
2018-06-27T20:38:46.734Z,4.63
2018-06-27T20:41:14.800Z,4.90
2018-06-27T20:43:42.868Z,5.13
2018-06-27T20:46:10.923Z,5.37
2018-06-27T20:48:38.955Z,4.80
2018-06-27T20:51:07.025Z,4.93
2018-06-27T20:53:35.046Z,4.87
2018-06-27T20:56:03.102Z,4.80
2018-06-27T20:58:32.033Z,5.03
2018-06-27T21:01:00.035Z,4.87
2018-06-27T21:03:28.185Z,5.23
2018-06-27T21:05:56.325Z,5.30
2018-06-27T21:08:24.449Z,5.00
2018-06-27T21:10:52.532Z,4.97
2018-06-27T21:13:20.530Z,5.10
2018-06-27T21:15:48.568Z,5.40
2018-06-27T21:18:16.707Z,5.17
2018-06-27T21:20:44.776Z,4.77
2018-06-27T21:23:12.808Z,4.90
2018-06-27T21:25:41.005Z,5.83
2018-06-27T21:28:09.041Z,5.30
2018-06-27T21:30:37.154Z,5.10
2018-06-27T21:33:05.237Z,5.50
2018-06-27T21:35:33.490Z,4.83
2018-06-27T21:38:01.535Z,5.30
2018-06-27T21:40:29.640Z,5.20
2018-06-27T21:42:57.799Z,4.90
2018-06-27T21:45:25.888Z,5.50
2018-06-27T21:47:54.231Z,5.47
2018-06-27T21:50:22.314Z,4.93
2018-06-27T21:52:50.448Z,5.40
2018-06-27T21:55:18.428Z,4.53
2018-06-27T21:57:46.460Z,5.50
2018-06-27T22:00:15.100Z,4.77
2018-06-27T22:02:43.304Z,5.03
2018-06-27T22:05:11.364Z,4.83
2018-06-27T22:07:39.405Z,4.93
2018-06-27T22:10:07.547Z,5.20
2018-06-27T22:12:35.637Z,5.03
2018-06-27T22:15:04.108Z,4.70
2018-06-27T22:17:32.136Z,5.30
2018-06-27T22:20:00.253Z,4.87
2018-06-27T22:22:28.293Z,5.07
2018-06-27T22:24:56.496Z,4.80
2018-06-27T22:27:24.502Z,5.07
2018-06-27T22:29:52.675Z,4.70
2018-06-27T22:32:20.776Z,4.70
2018-06-27T22:34:48.924Z,4.90
2018-06-27T22:37:17.076Z,5.57
2018-06-27T22:39:45.182Z,5.10
2018-06-27T22:42:14.339Z,4.80
2018-06-27T22:44:43.372Z,4.80
2018-06-27T22:47:11.668Z,4.90
2018-06-27T22:49:39.693Z,5.17
2018-06-27T22:52:07.785Z,5.10
2018-06-27T22:54:35.921Z,4.87
2018-06-27T22:57:04.970Z,5.40
2018-06-27T22:59:33.363Z,4.73
2018-06-27T23:02:01.430Z,5.03
2018-06-27T23:04:29.489Z,5.47
2018-06-27T23:06:57.671Z,5.33
2018-06-27T23:09:25.704Z,4.87
2018-06-27T23:11:53.760Z,5.03
2018-06-27T23:14:21.902Z,5.20
2018-06-27T23:16:50.015Z,5.13
2018-06-27T23:19:18.246Z,5.00
2018-06-27T23:21:46.320Z,4.73
2018-06-27T23:24:14.319Z,5.33
2018-06-27T23:26:42.368Z,5.00
2018-06-27T23:29:10.381Z,4.73
2018-06-27T23:31:38.572Z,5.47
2018-06-27T23:34:06.616Z,5.17
2018-06-27T23:53:26.565Z,4.90
2018-06-27T23:55:54.628Z,5.40
2018-06-27T23:58:22.711Z,5.37
